Main page
METAR-TAF:

METAR-TAF

Airports :

Cairo Regional Airport

Cairo, Illinois, United States

latitude: 37-03-52N, longitude: 089-13-10W, elevation: 321 ft

Current weather observation

The report was made 26 minutes ago, at 22:15 UTC
Wind 6 mph from the North
Temperature 82°F
Humidity 79%
Pressure 29.94 in. Hg
Visibility: 10 miles
Scattered clouds at a height of 1900 ft

METAR: KCIR 172215Z AUTO 35005KT 10SM SCT019 28/24 A2994 RMK AO2 T02830241

Time: 17:41 (22:41 UTC)


TAF: missing

Weather observations and forecasts of more than 4000 airports (METAR and TAF reports).

The available stations are represented by yellow and red dots on the map.

Hover mouse over dot to see the name of the station.

Then click to see weather observations and forecasts.

To change the map : click on the green buttons with a black cross to zoom in, on the green button with a dash to zoom out, or on the green arrows for adjacent maps.


METAR-TAF: